createdAt,value
2023-03-01T00:01:16.668Z,4.22
2023-03-01T00:03:44.559Z,4.16
2023-03-01T00:06:14.004Z,4.15
2023-03-01T00:08:41.935Z,4.13
2023-03-01T00:11:12.248Z,4.05
2023-03-01T00:13:40.104Z,4.11
2023-03-01T00:16:10.105Z,4.12
2023-03-01T00:18:37.965Z,4.07
2023-03-01T00:21:06.285Z,4.07
2023-03-01T00:23:36.144Z,4.05
2023-03-01T00:26:04.197Z,4.04
2023-03-01T00:28:31.781Z,4.01
2023-03-01T00:31:05.284Z,4.03
2023-03-01T00:33:33.032Z,4.01
2023-03-01T00:36:01.248Z,4.01
2023-03-01T00:38:29.433Z,3.97
2023-03-01T00:41:05.198Z,3.91
2023-03-01T00:43:37.602Z,3.91
2023-03-01T00:46:05.930Z,3.87
2023-03-01T00:48:34.095Z,3.83
2023-03-01T00:51:07.281Z,3.85
2023-03-01T00:53:35.475Z,3.85
2023-03-01T00:56:05.719Z,3.87
2023-03-01T00:58:33.806Z,3.87
2023-03-01T01:01:01.870Z,3.88
2023-03-01T01:03:29.455Z,3.82
2023-03-01T01:05:57.081Z,3.77
2023-03-01T01:08:24.676Z,3.76
2023-03-01T01:10:52.328Z,3.76
2023-03-01T01:13:21.376Z,3.66
2023-03-01T01:15:49.058Z,3.65
2023-03-01T01:18:16.860Z,3.60
2023-03-01T01:20:44.501Z,3.54
2023-03-01T01:23:12.168Z,3.58
2023-03-01T01:25:39.860Z,3.59
2023-03-01T01:28:07.628Z,3.57
2023-03-01T01:30:36.595Z,3.59
2023-03-01T01:33:04.221Z,3.58
2023-03-01T01:35:32.079Z,3.59
2023-03-01T01:37:59.831Z,3.64
2023-03-01T01:40:27.438Z,3.57
2023-03-01T01:42:55.082Z,3.62
2023-03-01T01:45:35.621Z,3.54
2023-03-01T01:48:06.978Z,3.51
2023-03-01T01:50:39.597Z,3.52
2023-03-01T01:53:11.053Z,3.47
2023-03-01T01:55:42.880Z,3.44
2023-03-01T01:58:12.971Z,3.50
2023-03-01T02:00:40.936Z,3.47
2023-03-01T02:03:13.706Z,3.47
2023-03-01T02:05:54.930Z,3.44
2023-03-01T02:08:24.875Z,3.45
2023-03-01T02:10:55.161Z,3.50
2023-03-01T02:13:22.752Z,3.48
2023-03-01T02:15:51.735Z,3.49
2023-03-01T02:18:22.922Z,3.50
2023-03-01T02:21:07.550Z,3.43
2023-03-01T02:23:35.853Z,3.39
2023-03-01T02:26:10.099Z,3.38
2023-03-01T02:28:41.161Z,3.41
2023-03-01T02:31:28.604Z,3.47
2023-03-01T02:33:57.270Z,3.48
2023-03-01T02:36:28.980Z,3.51
2023-03-01T02:39:00.818Z,3.54
2023-03-01T02:41:32.911Z,3.61
2023-03-01T02:44:02.004Z,3.54
2023-03-01T02:46:30.528Z,3.50
2023-03-01T02:49:00.376Z,3.48
2023-03-01T02:51:40.607Z,3.44
2023-03-01T02:54:15.046Z,3.39
2023-03-01T02:56:43.520Z,3.40
2023-03-01T02:59:13.642Z,3.40
2023-03-01T03:01:41.252Z,3.43
2023-03-01T03:04:11.839Z,3.45
2023-03-01T03:06:39.782Z,3.43
2023-03-01T03:09:09.038Z,3.40
2023-03-01T03:11:37.756Z,3.31
2023-03-01T03:14:05.560Z,3.33
2023-03-01T03:16:34.780Z,3.35
2023-03-01T03:19:05.947Z,3.36
2023-03-01T03:21:33.760Z,3.37
2023-03-01T03:24:01.612Z,3.37
2023-03-01T03:26:29.979Z,3.36
2023-03-01T03:28:58.107Z,3.39
2023-03-01T03:31:25.869Z,3.44
2023-03-01T03:33:55.186Z,3.52
2023-03-01T03:36:25.136Z,3.49
2023-03-01T03:38:52.826Z,3.56
2023-03-01T03:41:20.705Z,3.60
2023-03-01T03:43:49.901Z,3.60
2023-03-01T03:46:18.075Z,3.55
2023-03-01T03:48:47.140Z,3.53
2023-03-01T03:51:18.049Z,3.51
2023-03-01T03:53:46.705Z,3.45
2023-03-01T03:56:14.820Z,3.48
2023-03-01T03:58:42.510Z,3.35
2023-03-01T04:01:10.173Z,3.36
2023-03-01T04:03:37.832Z,3.34
2023-03-01T04:06:07.081Z,3.35
2023-03-01T04:08:36.153Z,3.35
2023-03-01T04:11:20.190Z,3.29
2023-03-01T04:13:47.807Z,3.20
2023-03-01T04:16:15.525Z,3.19
2023-03-01T04:18:43.313Z,3.18
2023-03-01T04:21:12.132Z,3.16
2023-03-01T04:23:41.819Z,3.07
2023-03-01T04:26:10.092Z,3.10
2023-03-01T04:28:40.935Z,3.18
2023-03-01T04:31:14.973Z,3.24
2023-03-01T04:33:43.487Z,3.24
2023-03-01T04:36:12.060Z,3.24
2023-03-01T04:38:41.714Z,3.22
2023-03-01T04:41:12.324Z,3.27
2023-03-01T04:43:40.349Z,3.24
2023-03-01T04:46:10.307Z,3.18
2023-03-01T04:48:38.610Z,3.20
2023-03-01T04:51:07.629Z,3.25
2023-03-01T04:53:37.129Z,3.23
2023-03-01T04:56:07.143Z,3.34
2023-03-01T04:58:35.060Z,3.20
2023-03-01T05:01:02.684Z,3.17
2023-03-01T05:03:30.324Z,3.21
2023-03-01T05:06:01.614Z,3.30
2023-03-01T05:08:29.290Z,3.34
2023-03-01T05:10:57.203Z,3.37
2023-03-01T05:13:26.228Z,3.37
2023-03-01T05:15:56.992Z,3.43
2023-03-01T05:18:26.752Z,3.37
2023-03-01T05:20:57.164Z,3.43
2023-03-01T05:23:25.082Z,3.56
2023-03-01T05:25:53.131Z,3.52
2023-03-01T05:28:22.196Z,3.49
2023-03-01T05:30:52.586Z,3.56
2023-03-01T05:33:22.839Z,3.50
2023-03-01T05:35:51.579Z,3.50
2023-03-01T05:38:19.892Z,3.44
2023-03-01T05:40:49.494Z,3.49
2023-03-01T05:43:19.054Z,3.47
2023-03-01T05:45:47.667Z,3.39
2023-03-01T05:48:16.925Z,3.34
2023-03-01T05:50:46.596Z,3.40
2023-03-01T05:53:16.830Z,3.40
2023-03-01T05:55:47.138Z,3.38
2023-03-01T05:58:17.002Z,3.43
2023-03-01T06:00:46.635Z,3.47
2023-03-01T06:03:17.232Z,3.43
2023-03-01T06:05:45.760Z,3.45
2023-03-01T06:08:14.597Z,3.50
2023-03-01T06:10:42.843Z,3.52
2023-03-01T06:13:10.890Z,3.58
2023-03-01T06:15:38.973Z,3.57
2023-03-01T06:18:06.678Z,3.51
2023-03-01T06:20:36.448Z,3.55
2023-03-01T06:23:04.190Z,3.60
2023-03-01T06:25:31.928Z,3.64
2023-03-01T06:27:59.626Z,3.67
2023-03-01T06:30:28.439Z,3.69
2023-03-01T06:33:04.318Z,3.71
2023-03-01T06:35:32.446Z,3.66
2023-03-01T06:38:03.283Z,3.65
2023-03-01T06:40:32.093Z,3.63
2023-03-01T06:43:00.439Z,3.59
2023-03-01T06:45:28.418Z,3.65
2023-03-01T06:48:04.710Z,3.72
2023-03-01T06:50:32.670Z,3.78
2023-03-01T06:53:01.919Z,3.86
2023-03-01T06:55:29.888Z,3.90
2023-03-01T06:57:58.054Z,3.90
2023-03-01T07:00:26.390Z,3.87
2023-03-01T07:02:54.369Z,3.89
2023-03-01T07:05:22.433Z,3.91
2023-03-01T07:07:50.151Z,3.94
2023-03-01T07:10:19.590Z,4.01
2023-03-01T07:12:47.456Z,4.02
2023-03-01T07:15:16.168Z,4.14
2023-03-01T07:17:45.562Z,4.20
2023-03-01T07:20:14.159Z,4.24
2023-03-01T07:22:42.904Z,4.22
2023-03-01T07:25:10.936Z,4.22
2023-03-01T07:27:40.066Z,4.22
2023-03-01T07:30:09.221Z,4.15
2023-03-01T07:32:37.323Z,4.07
2023-03-01T07:35:05.332Z,4.06
2023-03-01T07:37:33.028Z,4.00
2023-03-01T07:40:00.748Z,4.01
2023-03-01T07:42:28.382Z,3.94
2023-03-01T07:44:57.485Z,3.97
2023-03-01T07:47:25.243Z,3.87
2023-03-01T07:49:52.906Z,3.97
2023-03-01T07:52:20.545Z,3.95
2023-03-01T07:54:48.253Z,3.98
2023-03-01T07:57:15.944Z,4.04
2023-03-01T07:59:43.649Z,4.09
2023-03-01T08:02:12.898Z,4.19
2023-03-01T08:04:40.709Z,4.36
2023-03-01T08:07:08.437Z,4.45
2023-03-01T08:09:36.674Z,4.60
2023-03-01T08:12:05.491Z,4.69
2023-03-01T08:14:33.608Z,4.84
2023-03-01T08:17:01.593Z,4.92
2023-03-01T08:19:31.285Z,4.98
2023-03-01T08:22:00.794Z,5.01
2023-03-01T08:24:28.659Z,5.06
2023-03-01T08:26:57.016Z,5.10
2023-03-01T08:29:25.578Z,5.20
2023-03-01T08:31:53.562Z,5.27
2023-03-01T08:34:21.475Z,5.30
2023-03-01T08:36:51.106Z,5.36
2023-03-01T08:39:20.252Z,5.37
2023-03-01T08:41:48.368Z,5.38
2023-03-01T08:44:17.961Z,5.46
2023-03-01T08:46:46.887Z,5.65
2023-03-01T08:49:21.769Z,5.75
2023-03-01T08:51:51.122Z,6.03
2023-03-01T08:54:21.235Z,6.45
2023-03-01T08:56:49.791Z,6.83
2023-03-01T08:59:19.146Z,7.14
2023-03-01T09:01:47.060Z,7.61
2023-03-01T09:04:16.506Z,8.37
2023-03-01T09:06:44.795Z,9.72
2023-03-01T09:09:17.673Z,11.51
2023-03-01T09:11:51.162Z,12.87
2023-03-01T09:14:18.999Z,14.57
2023-03-01T09:16:46.694Z,15.99
2023-03-01T09:19:15.692Z,17.01
2023-03-01T09:21:53.243Z,19.04
2023-03-01T09:24:24.165Z,20.15
2023-03-01T09:26:54.692Z,19.97
2023-03-01T09:29:22.937Z,20.06
2023-03-01T09:31:51.110Z,19.57
2023-03-01T09:34:24.098Z,18.32
2023-03-01T09:36:52.460Z,17.68
2023-03-01T09:39:22.344Z,17.47
2023-03-01T09:41:56.463Z,17.01
2023-03-01T09:44:33.144Z,16.65
2023-03-01T09:47:01.811Z,16.39
2023-03-01T09:49:32.182Z,16.24
2023-03-01T09:52:05.882Z,16.92
2023-03-01T09:54:34.969Z,17.74
2023-03-01T09:57:18.875Z,17.98
2023-03-01T10:00:10.399Z,18.43
2023-03-01T10:02:43.990Z,19.32
2023-03-01T10:05:23.910Z,19.06
2023-03-01T10:08:04.415Z,19.01
2023-03-01T10:10:37.891Z,19.17
2023-03-01T10:13:16.270Z,20.36
2023-03-01T10:15:49.869Z,22.09
2023-03-01T10:18:22.759Z,21.94
2023-03-01T10:20:55.667Z,21.43
2023-03-01T10:23:25.778Z,21.18
2023-03-01T10:26:09.133Z,20.76
2023-03-01T10:28:46.781Z,21.78
2023-03-01T10:31:16.979Z,23.02
2023-03-01T10:33:44.695Z,23.80
2023-03-01T10:36:12.550Z,24.09
2023-03-01T10:38:53.276Z,24.43
2023-03-01T10:41:25.268Z,25.07
2023-03-01T10:43:55.600Z,24.96
2023-03-01T10:46:28.809Z,26.75
2023-03-01T10:49:15.700Z,27.47
2023-03-01T10:51:47.097Z,26.79
2023-03-01T10:54:22.878Z,26.50
2023-03-01T10:56:55.429Z,24.42
2023-03-01T10:59:29.691Z,23.32
2023-03-01T11:02:24.636Z,23.83
2023-03-01T11:05:01.135Z,23.00
2023-03-01T11:07:29.587Z,21.42
2023-03-01T11:09:57.520Z,19.72
2023-03-01T11:12:29.889Z,18.29
2023-03-01T11:14:57.993Z,16.93
2023-03-01T11:17:30.016Z,16.36
2023-03-01T11:20:17.787Z,16.81
2023-03-01T11:22:49.886Z,18.12
2023-03-01T11:25:19.961Z,19.15
2023-03-01T11:27:49.559Z,19.52
2023-03-01T11:30:22.385Z,19.46
2023-03-01T11:32:59.585Z,19.17
2023-03-01T11:35:30.095Z,19.24
2023-03-01T11:38:07.123Z,19.73
2023-03-01T11:40:39.366Z,19.54
2023-03-01T11:43:14.620Z,19.56
2023-03-01T11:45:57.663Z,20.52
2023-03-01T11:48:49.212Z,21.72
2023-03-01T11:51:25.839Z,22.85
2023-03-01T11:54:06.275Z,22.80
2023-03-01T11:56:37.804Z,22.90
2023-03-01T11:59:25.414Z,24.03
2023-03-01T12:02:14.290Z,25.96
2023-03-01T12:05:15.699Z,26.77
2023-03-01T12:07:48.779Z,26.20
2023-03-01T12:10:25.372Z,24.51
2023-03-01T12:13:12.165Z,23.42
2023-03-01T12:16:10.047Z,22.45
2023-03-01T12:19:13.246Z,21.81
2023-03-01T12:21:54.691Z,21.49
2023-03-01T12:24:40.865Z,20.99
2023-03-01T12:27:20.599Z,19.60
2023-03-01T12:30:02.120Z,18.56
2023-03-01T12:32:42.185Z,18.65
2023-03-01T12:35:45.823Z,19.97
2023-03-01T12:38:35.101Z,19.67
2023-03-01T12:41:15.349Z,18.35
2023-03-01T12:44:00.421Z,17.16
2023-03-01T12:46:43.505Z,15.97
2023-03-01T12:49:16.373Z,17.02
2023-03-01T12:51:53.955Z,17.57
2023-03-01T12:54:28.587Z,18.39
2023-03-01T12:56:58.374Z,19.79
2023-03-01T12:59:31.553Z,20.32
2023-03-01T13:02:07.746Z,20.01
2023-03-01T13:04:55.929Z,20.27
2023-03-01T13:07:31.484Z,20.28
2023-03-01T13:10:14.083Z,20.01
2023-03-01T13:12:53.379Z,19.17
2023-03-01T13:15:28.976Z,18.56
2023-03-01T13:17:59.086Z,18.09
2023-03-01T13:20:33.185Z,17.89
2023-03-01T13:23:08.425Z,17.57
2023-03-01T13:25:42.408Z,17.27
2023-03-01T13:28:43.729Z,16.95
2023-03-01T13:31:14.743Z,16.44
2023-03-01T13:33:48.014Z,16.10
2023-03-01T13:36:57.745Z,15.61
2023-03-01T13:39:36.591Z,15.13
2023-03-01T13:42:05.686Z,14.65
2023-03-01T13:44:36.945Z,14.49
2023-03-01T13:47:18.303Z,14.22
2023-03-01T13:49:51.596Z,13.85
2023-03-01T13:52:38.339Z,13.58
2023-03-01T13:55:19.287Z,13.42
2023-03-01T13:57:54.458Z,13.21
2023-03-01T14:00:34.815Z,13.00
2023-03-01T14:03:14.469Z,12.80
2023-03-01T14:05:45.400Z,12.64
2023-03-01T14:08:23.505Z,12.64
2023-03-01T14:11:37.912Z,12.63
2023-03-01T14:14:24.494Z,12.51
2023-03-01T14:17:00.644Z,12.59
2023-03-01T14:19:33.570Z,12.48
2023-03-01T14:22:07.942Z,12.33
2023-03-01T14:24:40.406Z,12.17
2023-03-01T14:27:13.821Z,11.91
2023-03-01T14:29:42.491Z,11.83
2023-03-01T14:32:21.285Z,11.89
2023-03-01T14:34:51.678Z,11.96
2023-03-01T14:37:23.099Z,12.05
2023-03-01T14:39:51.264Z,11.99
2023-03-01T14:42:22.306Z,11.93
2023-03-01T14:44:52.175Z,11.80
2023-03-01T14:47:28.106Z,11.86
2023-03-01T14:50:00.537Z,11.80
2023-03-01T14:52:37.018Z,11.68
2023-03-01T14:55:08.543Z,11.56
2023-03-01T14:57:37.775Z,11.46
2023-03-01T15:00:09.284Z,11.49
2023-03-01T15:02:37.695Z,11.33
2023-03-01T15:05:08.995Z,11.35
2023-03-01T15:07:42.256Z,11.21
2023-03-01T15:10:21.361Z,11.20
2023-03-01T15:12:50.876Z,11.18
2023-03-01T15:15:43.530Z,11.17
2023-03-01T15:18:21.373Z,11.01
2023-03-01T15:20:50.858Z,10.98
2023-03-01T15:23:24.015Z,10.82
2023-03-01T15:25:57.364Z,10.78
2023-03-01T15:28:28.683Z,10.88
2023-03-01T15:31:03.986Z,10.82
2023-03-01T15:33:35.688Z,10.78
2023-03-01T15:36:05.937Z,10.79
2023-03-01T15:38:39.219Z,10.81
2023-03-01T15:41:23.518Z,10.76
2023-03-01T15:43:55.309Z,10.66
2023-03-01T15:46:30.390Z,10.68
2023-03-01T15:49:00.641Z,10.61
2023-03-01T15:51:35.138Z,10.61
2023-03-01T15:54:07.517Z,10.61
2023-03-01T15:56:36.193Z,10.53
2023-03-01T15:59:05.758Z,10.36
2023-03-01T16:01:35.282Z,10.27
2023-03-01T16:04:03.086Z,10.26
2023-03-01T16:06:31.193Z,10.18
2023-03-01T16:08:59.189Z,10.15
2023-03-01T16:11:26.804Z,10.20
2023-03-01T16:13:54.690Z,10.15
2023-03-01T16:16:24.024Z,10.08
2023-03-01T16:18:54.310Z,10.00
2023-03-01T16:21:25.873Z,9.92
2023-03-01T16:23:54.494Z,9.83
2023-03-01T16:26:22.240Z,9.87
2023-03-01T16:28:50.160Z,9.76
2023-03-01T16:31:28.713Z,9.72
2023-03-01T16:33:58.875Z,9.68
2023-03-01T16:36:29.080Z,9.72
2023-03-01T16:38:57.638Z,9.62
2023-03-01T16:41:25.768Z,9.63
2023-03-01T16:43:53.700Z,9.56
2023-03-01T16:46:24.116Z,9.61
2023-03-01T16:48:52.738Z,9.56
2023-03-01T16:51:22.519Z,9.59
2023-03-01T16:53:50.540Z,9.50
2023-03-01T16:56:20.102Z,9.47
2023-03-01T16:58:47.903Z,9.42
2023-03-01T17:01:18.007Z,9.44
2023-03-01T17:03:47.192Z,9.47
2023-03-01T17:06:17.044Z,9.45
2023-03-01T17:08:46.051Z,9.40
2023-03-01T17:11:16.464Z,9.32
2023-03-01T17:13:44.983Z,9.30
2023-03-01T17:16:15.271Z,9.27
2023-03-01T17:18:43.466Z,9.21
2023-03-01T17:21:12.142Z,9.26
2023-03-01T17:23:41.813Z,9.23
2023-03-01T17:26:10.929Z,9.24
2023-03-01T17:28:39.195Z,9.18
2023-03-01T17:31:08.611Z,9.14
2023-03-01T17:33:36.466Z,9.09
2023-03-01T17:36:04.289Z,9.09
2023-03-01T17:38:32.010Z,9.06
2023-03-01T17:41:00.995Z,9.02
2023-03-01T17:43:29.996Z,9.02
2023-03-01T17:45:58.428Z,8.96
2023-03-01T17:48:26.849Z,8.93
2023-03-01T17:50:54.485Z,8.92
2023-03-01T17:53:22.495Z,8.85
2023-03-01T17:55:54.060Z,8.86
2023-03-01T17:58:22.901Z,8.83
2023-03-01T18:00:52.195Z,8.77
2023-03-01T18:03:21.634Z,8.77
2023-03-01T18:05:50.644Z,8.77
2023-03-01T18:08:18.334Z,8.68
2023-03-01T18:10:45.957Z,8.62
2023-03-01T18:13:14.967Z,8.64
2023-03-01T18:15:42.726Z,8.64
2023-03-01T18:18:11.877Z,8.67
2023-03-01T18:20:39.619Z,8.64
2023-03-01T18:23:07.411Z,8.64
2023-03-01T18:25:35.177Z,8.56
2023-03-01T18:28:02.950Z,8.55
2023-03-01T18:30:30.713Z,8.50
2023-03-01T18:32:58.689Z,8.48
2023-03-01T18:35:27.748Z,8.50
2023-03-01T18:37:55.566Z,8.48
2023-03-01T18:40:23.304Z,8.49
2023-03-01T18:42:50.965Z,8.41
2023-03-01T18:45:19.279Z,8.34
2023-03-01T18:47:49.740Z,8.34
2023-03-01T18:50:17.706Z,8.30
2023-03-01T18:52:46.811Z,8.20
2023-03-01T18:55:14.563Z,8.17
2023-03-01T18:57:42.343Z,8.15
2023-03-01T19:00:11.317Z,8.15
2023-03-01T19:02:39.063Z,8.18
2023-03-01T19:05:07.731Z,8.15
2023-03-01T19:07:35.363Z,8.14
2023-03-01T19:10:04.751Z,8.08
2023-03-01T19:12:34.393Z,8.03
2023-03-01T19:15:02.867Z,8.03
2023-03-01T19:17:31.497Z,7.99
2023-03-01T19:19:59.529Z,7.91
2023-03-01T19:22:27.914Z,7.94
2023-03-01T19:24:55.979Z,7.89
2023-03-01T19:27:25.086Z,7.90
2023-03-01T19:29:52.887Z,7.89
2023-03-01T19:32:20.724Z,7.84
2023-03-01T19:34:48.543Z,7.79
2023-03-01T19:37:16.248Z,7.81
2023-03-01T19:39:44.376Z,7.77
2023-03-01T19:42:12.281Z,7.74
2023-03-01T19:44:41.478Z,7.72
2023-03-01T19:47:09.226Z,7.71
2023-03-01T19:49:37.810Z,7.66
2023-03-01T19:52:05.808Z,7.62
2023-03-01T19:54:33.767Z,7.61
2023-03-01T19:57:01.538Z,7.64
2023-03-01T19:59:29.275Z,7.60
2023-03-01T20:01:58.537Z,7.47
2023-03-01T20:04:26.389Z,7.45
2023-03-01T20:06:54.073Z,7.44
2023-03-01T20:09:22.689Z,7.40
2023-03-01T20:11:51.125Z,7.42
2023-03-01T20:14:21.096Z,7.38
2023-03-01T20:16:51.049Z,7.35
2023-03-01T20:19:20.818Z,7.31
2023-03-01T20:21:48.488Z,7.30
2023-03-01T20:24:16.380Z,7.27
2023-03-01T20:26:44.086Z,7.31
2023-03-01T20:29:12.587Z,7.25
2023-03-01T20:31:42.479Z,7.21
2023-03-01T20:34:10.405Z,7.23
2023-03-01T20:36:41.127Z,7.17
2023-03-01T20:39:09.810Z,7.15
2023-03-01T20:41:37.482Z,7.13
2023-03-01T20:44:06.666Z,7.12
2023-03-01T20:46:35.897Z,7.14
2023-03-01T20:49:04.735Z,7.17
2023-03-01T20:51:32.535Z,7.21
2023-03-01T20:54:01.570Z,7.20
2023-03-01T20:56:29.424Z,7.14
2023-03-01T20:58:58.302Z,7.13
2023-03-01T21:01:27.442Z,7.11
2023-03-01T21:03:55.881Z,7.10
2023-03-01T21:06:23.626Z,7.09
2023-03-01T21:08:51.845Z,7.06
2023-03-01T21:11:24.761Z,7.05
2023-03-01T21:13:52.717Z,7.07
2023-03-01T21:16:20.902Z,7.08
2023-03-01T21:18:49.271Z,7.04
2023-03-01T21:21:18.640Z,7.03
2023-03-01T21:23:47.614Z,7.04
2023-03-01T21:26:19.252Z,7.01
2023-03-01T21:28:50.207Z,6.97
2023-03-01T21:31:20.288Z,6.88
2023-03-01T21:33:50.205Z,6.86
2023-03-01T21:36:18.097Z,6.86
2023-03-01T21:38:48.139Z,6.83
2023-03-01T21:41:18.542Z,6.84
2023-03-01T21:43:49.285Z,6.85
2023-03-01T21:46:19.218Z,6.86
2023-03-01T21:48:47.819Z,6.80
2023-03-01T21:51:17.628Z,6.79
2023-03-01T21:53:45.688Z,6.77
2023-03-01T21:56:17.282Z,6.65
2023-03-01T21:58:45.029Z,6.61
2023-03-01T22:01:16.382Z,6.65
2023-03-01T22:03:46.113Z,6.60
2023-03-01T22:06:30.004Z,6.57
2023-03-01T22:09:00.323Z,6.62
2023-03-01T22:11:28.591Z,6.53
2023-03-01T22:13:57.365Z,6.40
2023-03-01T22:16:31.307Z,6.41
2023-03-01T22:18:59.627Z,6.43
2023-03-01T22:21:28.067Z,6.40
2023-03-01T22:23:58.012Z,6.39
2023-03-01T22:26:27.825Z,6.40
2023-03-01T22:28:58.255Z,6.45
2023-03-01T22:31:27.965Z,6.43
2023-03-01T22:33:56.551Z,6.38
2023-03-01T22:36:24.384Z,6.39
2023-03-01T22:38:58.517Z,6.38
2023-03-01T22:41:26.374Z,6.37
2023-03-01T22:43:54.130Z,6.35
2023-03-01T22:46:21.827Z,6.31
2023-03-01T22:48:51.103Z,6.25
2023-03-01T22:51:21.816Z,6.26
2023-03-01T22:53:49.759Z,6.23
2023-03-01T22:56:19.805Z,6.13
2023-03-01T22:58:47.626Z,6.06
2023-03-01T23:01:17.608Z,6.09
2023-03-01T23:03:46.221Z,6.10
2023-03-01T23:06:16.617Z,6.10
2023-03-01T23:08:44.755Z,6.09
2023-03-01T23:11:14.457Z,6.07
2023-03-01T23:13:43.406Z,6.06
2023-03-01T23:16:12.421Z,6.03
2023-03-01T23:18:40.825Z,6.06
2023-03-01T23:21:10.150Z,6.01
2023-03-01T23:23:39.562Z,5.95
2023-03-01T23:26:08.006Z,5.93
2023-03-01T23:28:40.699Z,5.97
2023-03-01T23:31:10.377Z,5.98
2023-03-01T23:33:38.745Z,5.95
2023-03-01T23:36:07.341Z,5.96
2023-03-01T23:38:35.046Z,5.90
2023-03-01T23:41:04.273Z,5.92
2023-03-01T23:43:33.105Z,5.90
2023-03-01T23:46:00.875Z,5.88
2023-03-01T23:48:28.616Z,5.88
2023-03-01T23:50:56.332Z,5.80
2023-03-01T23:53:24.086Z,5.76
2023-03-01T23:55:54.909Z,5.73
2023-03-01T23:58:28.308Z,5.75
